createdAt,value
2022-08-18T00:02:03.076Z,20.48
2022-08-18T00:07:03.419Z,20.41
2022-08-18T00:12:05.702Z,20.35
2022-08-18T00:17:04.445Z,20.30
2022-08-18T00:22:03.011Z,20.22
2022-08-18T00:27:03.616Z,20.14
2022-08-18T00:32:12.581Z,20.08
2022-08-18T00:37:11.909Z,20.03
2022-08-18T00:42:27.506Z,19.96
2022-08-18T00:47:33.100Z,19.86
2022-08-18T00:52:42.928Z,19.77
2022-08-18T00:57:44.001Z,19.71
2022-08-18T01:02:51.375Z,19.65
2022-08-18T01:07:52.899Z,19.57
2022-08-18T01:12:56.310Z,19.52
2022-08-18T01:18:13.091Z,19.46
2022-08-18T01:23:19.393Z,19.38
2022-08-18T01:28:19.648Z,19.32
2022-08-18T01:33:19.589Z,19.27
2022-08-18T01:38:20.159Z,19.23
2022-08-18T01:43:20.185Z,19.19
2022-08-18T01:48:19.317Z,19.13
2022-08-18T01:53:19.387Z,19.05
2022-08-18T01:58:17.927Z,18.96
2022-08-18T02:03:18.916Z,18.89
2022-08-18T02:08:17.927Z,18.81
2022-08-18T02:13:16.478Z,18.74
2022-08-18T02:18:43.544Z,18.69
2022-08-18T02:23:40.386Z,18.64
2022-08-18T02:28:44.336Z,18.59
2022-08-18T02:33:48.511Z,18.54
2022-08-18T02:38:54.809Z,18.50
2022-08-18T02:43:57.985Z,18.47
2022-08-18T02:48:57.008Z,18.44
2022-08-18T02:53:59.589Z,18.41
2022-08-18T02:59:02.168Z,18.37
2022-08-18T03:04:03.017Z,18.36
2022-08-18T03:09:01.572Z,18.35
2022-08-18T03:14:01.815Z,18.31
2022-08-18T03:19:01.243Z,18.28
2022-08-18T03:24:02.864Z,18.24
2022-08-18T03:29:07.899Z,18.20
2022-08-18T03:34:08.635Z,18.16
2022-08-18T03:39:12.248Z,18.12
2022-08-18T03:44:11.610Z,18.10
2022-08-18T03:49:10.321Z,18.10
2022-08-18T03:54:10.224Z,18.11
2022-08-18T03:59:13.994Z,18.13
2022-08-18T04:04:17.226Z,18.16
2022-08-18T04:09:19.028Z,18.20
2022-08-18T04:14:21.802Z,18.24
2022-08-18T04:19:26.231Z,18.28
2022-08-18T04:24:28.101Z,18.34
2022-08-18T04:29:27.808Z,18.41
2022-08-18T04:34:27.539Z,18.49
2022-08-18T04:39:27.098Z,18.60
2022-08-18T04:44:26.308Z,18.72
2022-08-18T04:49:27.505Z,18.86
2022-08-18T04:54:28.589Z,19.04
2022-08-18T04:59:28.306Z,19.21
2022-08-18T05:04:29.775Z,19.37
2022-08-18T05:09:29.612Z,19.55
2022-08-18T05:14:28.506Z,19.72
2022-08-18T05:19:27.279Z,19.89
2022-08-18T05:24:32.173Z,20.07
2022-08-18T05:29:41.871Z,20.26
2022-08-18T05:34:48.913Z,20.46
2022-08-18T05:40:05.274Z,20.68
2022-08-18T05:45:17.388Z,20.90
2022-08-18T05:50:20.870Z,21.12
2022-08-18T05:55:47.597Z,21.31
2022-08-18T06:00:59.847Z,21.52
2022-08-18T06:06:03.320Z,21.72
2022-08-18T06:11:02.073Z,21.93
2022-08-18T06:16:13.486Z,22.11
2022-08-18T06:21:36.904Z,22.31
2022-08-18T06:26:48.572Z,22.50
2022-08-18T06:32:05.566Z,22.70
2022-08-18T06:37:15.550Z,22.91
2022-08-18T06:42:18.788Z,23.11
2022-08-18T06:47:33.051Z,23.31
2022-08-18T06:52:37.217Z,23.52
2022-08-18T06:57:41.122Z,23.73
2022-08-18T07:02:56.695Z,23.93
2022-08-18T07:08:19.650Z,24.13
2022-08-18T07:13:30.158Z,24.33
2022-08-18T07:18:31.785Z,24.49
2022-08-18T07:23:38.468Z,24.65
2022-08-18T07:28:41.734Z,24.83
2022-08-18T07:33:43.736Z,25.01
2022-08-18T07:38:49.743Z,25.17
2022-08-18T07:44:11.383Z,25.32
2022-08-18T07:49:22.333Z,25.51
2022-08-18T07:54:53.012Z,25.70
2022-08-18T08:00:02.737Z,25.88
2022-08-18T08:05:23.549Z,26.04
2022-08-18T08:10:37.550Z,26.20
2022-08-18T08:15:52.588Z,26.33
2022-08-18T08:20:57.551Z,26.43
2022-08-18T08:26:14.445Z,26.58
2022-08-18T08:31:36.819Z,26.77
2022-08-18T08:36:41.094Z,26.89
2022-08-18T08:41:46.038Z,27.04
2022-08-18T08:46:55.640Z,27.20
2022-08-18T08:52:01.328Z,27.35
2022-08-18T08:57:04.316Z,27.53
2022-08-18T09:02:47.202Z,27.73
2022-08-18T09:08:18.365Z,27.93
2022-08-18T09:13:50.616Z,28.04
2022-08-18T09:19:14.417Z,28.21
2022-08-18T09:24:30.235Z,28.42
2022-08-18T09:29:55.816Z,28.61
2022-08-18T09:35:13.309Z,28.71
2022-08-18T09:41:02.067Z,28.82
2022-08-18T09:46:05.027Z,29.16
2022-08-18T09:51:40.201Z,29.51
2022-08-18T09:57:21.020Z,29.94
2022-08-18T10:03:25.440Z,30.35
2022-08-18T10:15:03.840Z,31.19
2022-08-18T10:20:26.091Z,31.43
2022-08-18T10:25:42.436Z,31.47
2022-08-18T10:31:09.715Z,31.77
2022-08-18T10:36:11.018Z,32.02
2022-08-18T10:41:21.834Z,32.20
2022-08-18T10:46:31.868Z,32.56
2022-08-18T10:52:01.440Z,32.77
2022-08-18T10:57:15.181Z,33.06
2022-08-18T11:02:33.253Z,33.50
2022-08-18T11:07:39.705Z,33.84
2022-08-18T11:18:42.986Z,33.08
2022-08-18T11:23:42.683Z,33.68
2022-08-18T11:28:45.095Z,34.28
2022-08-18T11:33:46.565Z,34.75
2022-08-18T11:39:02.925Z,34.96
2022-08-18T11:44:07.511Z,34.83
2022-08-18T11:49:24.131Z,34.47
2022-08-18T11:54:37.829Z,34.67
2022-08-18T11:59:54.743Z,34.60
2022-08-18T12:05:10.238Z,35.12
2022-08-18T12:10:32.257Z,35.32
2022-08-18T12:15:44.420Z,35.22
2022-08-18T12:20:45.711Z,35.75
2022-08-18T12:31:15.140Z,36.82
2022-08-18T12:36:16.290Z,36.77
2022-08-18T12:41:19.917Z,35.61
2022-08-18T12:46:22.950Z,35.01
2022-08-18T12:51:30.710Z,35.12
2022-08-18T12:56:32.975Z,35.79
2022-08-18T13:01:34.880Z,36.68
2022-08-18T13:06:54.149Z,37.45
2022-08-18T13:12:00.388Z,38.31
2022-08-18T13:16:59.444Z,39.35
2022-08-18T13:21:58.286Z,40.40
2022-08-18T13:26:58.254Z,41.39
2022-08-18T13:31:59.721Z,41.86
2022-08-18T13:36:59.286Z,40.74
2022-08-18T13:42:00.676Z,39.22
2022-08-18T13:47:00.527Z,38.09
2022-08-18T13:52:01.821Z,37.79
2022-08-18T13:57:03.146Z,37.66
2022-08-18T14:02:05.398Z,38.05
2022-08-18T14:07:09.206Z,38.33
2022-08-18T14:12:23.159Z,38.10
2022-08-18T14:17:24.451Z,38.19
2022-08-18T14:22:40.432Z,38.61
2022-08-18T14:27:44.052Z,39.19
2022-08-18T14:32:55.630Z,40.00
2022-08-18T14:37:57.262Z,40.40
2022-08-18T14:42:56.782Z,40.09
2022-08-18T14:47:57.941Z,40.18
2022-08-18T14:52:59.002Z,39.89
2022-08-18T14:57:59.759Z,39.60
2022-08-18T15:03:00.288Z,39.67
2022-08-18T15:08:00.641Z,39.40
2022-08-18T15:13:02.306Z,38.58
2022-08-18T15:18:03.512Z,37.71
2022-08-18T15:23:28.412Z,37.02
2022-08-18T15:28:30.175Z,36.24
2022-08-18T15:33:32.361Z,35.54
2022-08-18T15:38:34.832Z,34.70
2022-08-18T15:43:45.999Z,33.95
2022-08-18T15:48:45.701Z,33.30
2022-08-18T15:53:45.706Z,32.68
2022-08-18T15:58:47.035Z,32.23
2022-08-18T16:03:48.911Z,32.13
2022-08-18T16:08:48.665Z,32.17
2022-08-18T16:13:49.317Z,32.35
2022-08-18T16:18:49.139Z,32.31
2022-08-18T16:23:51.353Z,32.12
2022-08-18T16:28:54.416Z,32.24
2022-08-18T16:33:55.019Z,32.15
2022-08-18T16:38:58.218Z,31.99
2022-08-18T16:43:58.258Z,31.73
2022-08-18T16:48:59.412Z,31.28
2022-08-18T16:53:59.762Z,30.80
2022-08-18T16:59:17.525Z,30.32
2022-08-18T17:04:20.926Z,30.02
2022-08-18T17:09:20.779Z,29.95
2022-08-18T17:14:20.141Z,29.95
2022-08-18T17:19:19.266Z,29.88
2022-08-18T17:24:31.484Z,29.75
2022-08-18T17:29:44.051Z,29.56
2022-08-18T17:34:51.314Z,29.34
2022-08-18T17:40:02.317Z,29.15
2022-08-18T17:45:06.394Z,28.96
2022-08-18T17:50:32.659Z,28.75
2022-08-18T17:55:39.910Z,28.53
2022-08-18T18:00:40.727Z,28.31
2022-08-18T18:05:45.909Z,28.09
2022-08-18T18:11:05.474Z,27.85
2022-08-18T18:16:25.533Z,27.56
2022-08-18T18:21:53.572Z,27.29
2022-08-18T18:26:49.429Z,27.03
2022-08-18T18:32:02.040Z,26.81
2022-08-18T18:37:03.443Z,26.59
2022-08-18T18:42:20.132Z,26.44
2022-08-18T18:47:40.364Z,26.27
2022-08-18T18:52:53.162Z,26.11
2022-08-18T18:58:07.695Z,25.97
2022-08-18T19:03:19.064Z,25.83
2022-08-18T19:08:33.815Z,25.70
2022-08-18T19:13:40.495Z,25.57
2022-08-18T19:18:59.753Z,25.45
2022-08-18T19:24:19.028Z,25.35
2022-08-18T19:29:26.231Z,25.26
2022-08-18T19:34:30.181Z,25.18
2022-08-18T19:39:44.267Z,25.08
2022-08-18T19:45:14.877Z,24.98
2022-08-18T19:50:25.821Z,24.89
2022-08-18T19:55:40.797Z,24.77
2022-08-18T20:00:51.718Z,24.67
2022-08-18T20:06:34.541Z,24.58
2022-08-18T20:12:01.780Z,24.49
2022-08-18T20:17:23.164Z,24.40
2022-08-18T20:22:41.491Z,24.33
2022-08-18T20:27:43.640Z,24.26
2022-08-18T20:32:43.486Z,24.21
2022-08-18T20:37:43.449Z,24.16
2022-08-18T20:42:55.863Z,24.09
2022-08-18T20:48:43.205Z,24.04
2022-08-18T20:54:05.306Z,23.98
2022-08-18T20:59:20.379Z,23.92
2022-08-18T21:04:33.659Z,23.85
2022-08-18T21:09:33.059Z,23.79
2022-08-18T21:14:33.205Z,23.73
2022-08-18T21:19:42.358Z,23.67
2022-08-18T21:24:46.935Z,23.62
2022-08-18T21:29:49.617Z,23.58
2022-08-18T21:34:49.744Z,23.54
2022-08-18T21:39:59.991Z,23.47
2022-08-18T21:45:01.369Z,23.40
2022-08-18T21:50:14.938Z,23.33
2022-08-18T21:55:26.820Z,23.26
2022-08-18T22:00:31.939Z,23.20
2022-08-18T22:05:58.659Z,23.15
2022-08-18T22:12:00.604Z,23.10
2022-08-18T22:17:41.638Z,23.06
2022-08-18T22:22:58.092Z,23.00
2022-08-18T22:27:57.633Z,22.92
2022-08-18T22:32:56.577Z,22.85
2022-08-18T22:37:56.113Z,22.77
2022-08-18T22:42:57.640Z,22.71
2022-08-18T22:47:57.486Z,22.66
2022-08-18T22:52:56.582Z,22.60
2022-08-18T22:57:57.184Z,22.54
2022-08-18T23:02:57.667Z,22.48
2022-08-18T23:07:56.654Z,22.43
2022-08-18T23:12:55.230Z,22.38
2022-08-18T23:17:54.232Z,22.34
2022-08-18T23:22:53.532Z,22.28
2022-08-18T23:27:54.609Z,22.21
2022-08-18T23:32:55.066Z,22.14
2022-08-18T23:37:53.616Z,22.07
2022-08-18T23:42:52.939Z,21.99
2022-08-18T23:47:52.542Z,21.89
2022-08-18T23:53:02.996Z,21.78
2022-08-18T23:58:02.258Z,21.68
